createdAt,value
2019-05-10T00:00:10.125Z,13.55
2019-05-10T00:05:35.263Z,13.62
2019-05-10T00:10:47.347Z,13.70
2019-05-10T00:15:54.427Z,13.75
2019-05-10T00:21:02.451Z,13.81
2019-05-10T00:26:08.292Z,13.86
2019-05-10T00:31:15.430Z,13.92
2019-05-10T00:36:21.292Z,13.99
2019-05-10T00:41:28.428Z,14.03
2019-05-10T00:46:34.290Z,14.06
2019-05-10T00:51:41.438Z,14.05
2019-05-10T00:56:48.497Z,14.04
2019-05-10T01:01:54.340Z,14.06
2019-05-10T01:07:01.407Z,14.06
2019-05-10T01:12:07.355Z,14.05
2019-05-10T01:17:13.284Z,14.05
2019-05-10T01:22:20.451Z,14.03
2019-05-10T01:27:27.566Z,14.03
2019-05-10T01:32:34.767Z,14.01
2019-05-10T01:37:41.568Z,14.00
2019-05-10T01:42:48.474Z,13.99
2019-05-10T01:47:55.502Z,13.99
2019-05-10T01:53:02.487Z,13.96
2019-05-10T01:58:09.484Z,13.95
2019-05-10T02:03:16.472Z,13.92
2019-05-10T02:08:23.445Z,13.83
2019-05-10T02:13:30.444Z,13.84
2019-05-10T02:18:37.448Z,13.82
2019-05-10T02:23:44.421Z,13.82
2019-05-10T02:28:52.492Z,13.83
2019-05-10T02:33:59.438Z,13.81
2019-05-10T02:39:09.119Z,13.81
2019-05-10T02:44:16.409Z,13.81
2019-05-10T02:49:23.453Z,13.82
2019-05-10T02:54:30.433Z,13.84
2019-05-10T02:59:37.427Z,13.88
2019-05-10T03:04:47.462Z,13.92
2019-05-10T03:09:54.452Z,13.96
2019-05-10T03:15:01.565Z,14.04
2019-05-10T03:20:09.566Z,14.04
2019-05-10T03:25:17.417Z,14.11
2019-05-10T03:30:24.439Z,14.11
2019-05-10T03:35:31.445Z,14.12
2019-05-10T03:40:38.721Z,14.12
2019-05-10T03:45:45.577Z,14.09
2019-05-10T03:50:52.500Z,14.10
2019-05-10T03:55:59.476Z,14.10
2019-05-10T04:01:06.518Z,14.12
2019-05-10T04:06:13.576Z,14.13
2019-05-10T04:11:22.442Z,14.16
2019-05-10T04:16:29.546Z,14.18
2019-05-10T04:21:36.568Z,14.18
2019-05-10T04:26:43.436Z,14.17
2019-05-10T04:31:50.430Z,14.17
2019-05-10T04:36:57.546Z,14.18
2019-05-10T04:42:04.440Z,14.20
2019-05-10T04:47:12.710Z,14.23
2019-05-10T04:52:19.561Z,14.30
2019-05-10T04:57:26.437Z,14.40
2019-05-10T05:02:33.454Z,14.47
2019-05-10T05:07:40.434Z,14.48
2019-05-10T05:18:00.744Z,14.64
2019-05-10T05:23:07.559Z,14.53
2019-05-10T05:28:18.301Z,14.50
2019-05-10T05:33:23.384Z,14.50
2019-05-10T05:38:30.558Z,14.55
2019-05-10T05:43:45.326Z,14.61
2019-05-10T05:48:46.432Z,14.61
2019-05-10T05:53:53.461Z,14.71
2019-05-10T05:59:00.435Z,14.76
2019-05-10T06:04:12.529Z,14.78
2019-05-10T06:09:16.416Z,14.78
2019-05-10T06:14:23.467Z,14.86
2019-05-10T06:19:30.855Z,15.05
2019-05-10T06:24:37.705Z,15.33
2019-05-10T06:29:44.557Z,16.19
2019-05-10T06:34:51.435Z,16.46
2019-05-10T06:39:58.571Z,16.46
2019-05-10T06:45:14.347Z,16.88
2019-05-10T06:50:17.577Z,16.88
2019-05-10T06:55:25.248Z,17.38
2019-05-10T07:00:32.418Z,17.38
2019-05-10T07:05:39.434Z,17.48
2019-05-10T07:10:46.574Z,17.60
2019-05-10T07:15:53.572Z,17.64
2019-05-10T07:21:00.935Z,17.65
2019-05-10T07:26:09.954Z,17.80
2019-05-10T07:31:17.448Z,18.02
2019-05-10T07:36:27.249Z,18.14
2019-05-10T07:41:33.417Z,18.07
2019-05-10T07:46:47.094Z,18.19
2019-05-10T07:51:49.581Z,18.25
2019-05-10T07:56:56.600Z,18.24
2019-05-10T08:02:06.072Z,18.39
2019-05-10T08:07:12.455Z,18.39
2019-05-10T08:12:19.667Z,18.57
2019-05-10T08:17:28.793Z,18.54
2019-05-10T08:22:41.468Z,18.27
2019-05-10T08:27:50.236Z,18.50
2019-05-10T08:32:52.709Z,18.47
2019-05-10T08:38:02.305Z,18.36
2019-05-10T08:43:13.990Z,18.36
2019-05-10T08:48:19.301Z,18.43
2019-05-10T08:53:26.455Z,18.68
2019-05-10T08:58:37.181Z,19.23
2019-05-10T09:03:42.037Z,19.50
2019-05-10T09:08:55.331Z,19.77
2019-05-10T09:13:58.499Z,20.73
2019-05-10T09:19:05.559Z,19.95
2019-05-10T09:24:12.870Z,19.16
2019-05-10T09:29:21.792Z,19.16
2019-05-10T09:34:28.561Z,18.38
2019-05-10T09:39:35.534Z,17.78
2019-05-10T09:44:45.679Z,17.78
2019-05-10T09:49:56.691Z,17.80
2019-05-10T09:55:04.041Z,18.27
2019-05-10T10:00:09.845Z,18.27
2019-05-10T10:05:17.932Z,18.12
2019-05-10T10:10:31.705Z,17.63
2019-05-10T10:15:34.493Z,16.98
2019-05-10T10:26:01.563Z,16.40
2019-05-10T10:31:08.741Z,16.74
2019-05-10T10:36:15.685Z,17.31
2019-05-10T10:41:26.099Z,18.33
2019-05-10T10:46:30.495Z,18.33
2019-05-10T10:51:37.924Z,18.16
2019-05-10T10:56:44.292Z,17.65
2019-05-10T11:02:23.246Z,17.32
2019-05-10T11:07:10.067Z,17.48
2019-05-10T11:12:09.422Z,17.93
2019-05-10T11:17:16.486Z,18.08
2019-05-10T11:22:23.524Z,18.10
2019-05-10T11:27:30.997Z,18.14
2019-05-10T11:32:38.420Z,18.32
2019-05-10T11:37:45.846Z,18.63
2019-05-10T11:42:52.858Z,18.80
2019-05-10T11:48:02.037Z,19.25
2019-05-10T11:53:13.328Z,18.94
2019-05-10T11:58:17.438Z,18.55
2019-05-10T12:03:24.549Z,18.55
2019-05-10T12:08:32.423Z,18.15
2019-05-10T12:13:39.515Z,18.27
2019-05-10T12:19:02.439Z,18.70
2019-05-10T12:26:33.846Z,19.05
2019-05-10T12:29:12.431Z,19.48
2019-05-10T12:34:14.581Z,19.99
2019-05-10T12:39:21.574Z,20.73
2019-05-10T12:44:33.453Z,19.15
2019-05-10T12:49:40.927Z,19.15
2019-05-10T12:54:48.459Z,17.82
2019-05-10T12:59:55.549Z,17.12
2019-05-10T13:05:02.455Z,16.60
2019-05-10T13:10:10.279Z,16.56
2019-05-10T13:15:17.456Z,16.88
2019-05-10T13:20:30.726Z,17.30
2019-05-10T13:25:34.430Z,17.46
2019-05-10T13:30:41.546Z,17.46
2019-05-10T13:35:50.775Z,17.43
2019-05-10T13:40:58.412Z,17.55
2019-05-10T13:46:05.412Z,17.48
2019-05-10T13:51:12.447Z,17.53
2019-05-10T13:56:19.474Z,17.71
2019-05-10T14:01:26.578Z,17.87
2019-05-10T14:06:34.227Z,18.52
2019-05-10T14:11:46.644Z,18.52
2019-05-10T14:16:51.456Z,19.07
2019-05-10T14:21:58.861Z,19.84
2019-05-10T14:27:05.562Z,20.39
2019-05-10T14:32:12.435Z,20.73
2019-05-10T14:37:21.473Z,20.73
2019-05-10T14:42:31.279Z,20.97
2019-05-10T14:47:46.836Z,21.37
2019-05-10T14:52:46.400Z,21.28
2019-05-10T14:57:53.449Z,21.02
2019-05-10T15:03:02.460Z,20.81
2019-05-10T15:08:09.407Z,20.42
2019-05-10T15:13:19.515Z,20.22
2019-05-10T15:18:25.450Z,20.06
2019-05-10T15:23:32.449Z,20.16
2019-05-10T15:28:42.133Z,20.01
2019-05-10T15:33:48.449Z,19.74
2019-05-10T15:38:55.447Z,19.80
2019-05-10T15:44:02.475Z,19.65
2019-05-10T15:49:13.586Z,19.52
2019-05-10T15:54:19.441Z,19.74
2019-05-10T15:59:26.435Z,19.50
2019-05-10T16:04:33.614Z,19.02
2019-05-10T16:09:40.467Z,17.93
2019-05-10T16:14:47.453Z,17.93
2019-05-10T16:19:59.457Z,17.71
2019-05-10T16:25:03.470Z,18.52
2019-05-10T16:30:11.897Z,19.51
2019-05-10T16:35:22.019Z,19.99
2019-05-10T16:40:28.463Z,19.68
2019-05-10T16:45:35.714Z,19.49
2019-05-10T16:50:42.560Z,19.72
2019-05-10T16:55:49.459Z,19.90
2019-05-10T17:00:58.490Z,19.90
2019-05-10T17:06:05.794Z,19.82
2019-05-10T17:11:12.747Z,19.51
2019-05-10T17:16:19.585Z,18.75
2019-05-10T17:21:28.450Z,18.81
2019-05-10T17:26:35.495Z,18.51
2019-05-10T17:31:45.590Z,18.11
2019-05-10T17:36:57.073Z,18.11
2019-05-10T17:42:03.063Z,17.61
2019-05-10T17:47:09.566Z,17.61
2019-05-10T17:52:16.519Z,16.83
2019-05-10T17:57:25.894Z,16.83
2019-05-10T18:02:32.660Z,16.58
2019-05-10T18:07:39.575Z,16.13
2019-05-10T18:12:46.444Z,16.13
2019-05-10T18:17:57.454Z,15.92
2019-05-10T18:23:02.454Z,15.73
2019-05-10T18:28:09.543Z,15.57
2019-05-10T18:33:16.464Z,15.43
2019-05-10T18:38:23.917Z,15.28
2019-05-10T18:43:35.330Z,15.12
2019-05-10T18:48:40.451Z,14.97
2019-05-10T18:53:47.442Z,14.84
2019-05-10T18:58:54.572Z,14.70
2019-05-10T19:04:01.451Z,14.58
2019-05-10T19:09:09.680Z,14.46
2019-05-10T19:14:16.578Z,14.29
2019-05-10T19:19:24.872Z,14.29
2019-05-10T19:24:32.245Z,14.23
2019-05-10T19:29:45.557Z,14.16
2019-05-10T19:34:56.931Z,14.05
2019-05-10T19:39:57.444Z,13.96
2019-05-10T19:45:04.594Z,13.89
2019-05-10T19:50:12.232Z,13.75
2019-05-10T19:55:21.690Z,13.75
2019-05-10T20:00:29.271Z,13.71
2019-05-10T20:05:36.471Z,13.72
2019-05-10T20:10:43.480Z,13.73
2019-05-10T20:15:50.523Z,13.76
2019-05-10T20:20:57.580Z,13.78
2019-05-10T20:26:05.627Z,13.86
2019-05-10T20:31:12.513Z,13.83
2019-05-10T20:36:19.498Z,13.83
2019-05-10T20:41:30.264Z,13.81
2019-05-10T20:46:37.496Z,13.84
2019-05-10T20:51:44.490Z,13.82
2019-05-10T20:56:51.522Z,13.82
2019-05-10T21:01:58.474Z,13.78
2019-05-10T21:07:05.483Z,13.75
2019-05-10T21:12:13.715Z,13.71
2019-05-10T21:17:21.677Z,13.64
2019-05-10T21:22:28.455Z,13.57
2019-05-10T21:27:35.586Z,13.57
2019-05-10T21:32:42.470Z,13.48
2019-05-10T21:37:49.574Z,13.48
2019-05-10T21:42:56.499Z,13.41
2019-05-10T21:48:03.772Z,13.32
2019-05-10T21:53:12.460Z,13.22
2019-05-10T21:58:19.531Z,13.10
2019-05-10T22:03:27.104Z,13.00
2019-05-10T22:08:48.342Z,12.88
2019-05-10T22:16:18.573Z,12.58
2019-05-10T22:21:25.460Z,12.58
2019-05-10T22:26:32.437Z,12.45
2019-05-10T22:31:40.623Z,12.31
2019-05-10T22:36:47.563Z,12.06
2019-05-10T22:41:54.487Z,11.93
2019-05-10T22:47:01.447Z,11.93
2019-05-10T22:52:08.453Z,11.87
2019-05-10T22:57:16.557Z,11.80
2019-05-10T23:02:23.609Z,11.72
2019-05-10T23:07:30.497Z,11.57
2019-05-10T23:12:39.403Z,11.47
2019-05-10T23:17:46.462Z,11.47
2019-05-10T23:22:53.464Z,11.37
2019-05-10T23:28:02.906Z,11.27
2019-05-10T23:33:09.934Z,11.21
2019-05-10T23:38:16.777Z,11.16
2019-05-10T23:43:23.910Z,11.12
2019-05-10T23:48:34.269Z,11.13
2019-05-10T23:53:44.776Z,11.30
2019-05-10T23:58:51.599Z,11.30
